sensor_id;sensor_type;location;lat;lon;timestamp;pressure;altitude;pressure_sealevel;temperature;humidity
65534;BME280;53640;55.838;37.184;2023-05-16T00:01:46;99782.06;;;13.51;31.15
65534;BME280;53640;55.838;37.184;2023-05-16T00:04:13;99749.50;;;13.26;31.32
65534;BME280;53640;55.838;37.184;2023-05-16T00:06:39;99791.03;;;13.52;31.46
65534;BME280;53640;55.838;37.184;2023-05-16T00:09:06;99771.69;;;13.41;31.29
65534;BME280;53640;55.838;37.184;2023-05-16T00:11:32;99729.75;;;13.12;31.10
65534;BME280;53640;55.838;37.184;2023-05-16T00:13:58;99726.75;;;13.02;31.58
65534;BME280;53640;55.838;37.184;2023-05-16T00:16:26;99772.59;;;13.35;31.40
65534;BME280;53640;55.838;37.184;2023-05-16T00:18:55;99774.09;;;13.31;31.28
65534;BME280;53640;55.838;37.184;2023-05-16T00:21:24;99772.69;;;13.29;31.39
65534;BME280;53640;55.838;37.184;2023-05-16T00:23:50;99779.72;;;13.36;31.78
65534;BME280;53640;55.838;37.184;2023-05-16T00:26:19;99755.00;;;13.19;31.42
65534;BME280;53640;55.838;37.184;2023-05-16T00:28:46;99780.41;;;13.32;31.37
65534;BME280;53640;55.838;37.184;2023-05-16T00:31:13;99735.13;;;13.01;31.54
65534;BME280;53640;55.838;37.184;2023-05-16T00:33:41;99765.66;;;13.21;31.17
65534;BME280;53640;55.838;37.184;2023-05-16T00:36:07;99735.78;;;12.96;31.33
65534;BME280;53640;55.838;37.184;2023-05-16T00:38:34;99751.59;;;13.06;31.42
65534;BME280;53640;55.838;37.184;2023-05-16T00:41:00;99754.97;;;13.01;31.41
65534;BME280;53640;55.838;37.184;2023-05-16T00:43:27;99775.09;;;13.18;31.49
65534;BME280;53640;55.838;37.184;2023-05-16T00:45:53;99751.41;;;13.01;31.78
65534;BME280;53640;55.838;37.184;2023-05-16T00:48:19;99758.53;;;13.02;32.38
65534;BME280;53640;55.838;37.184;2023-05-16T00:50:46;99742.41;;;12.82;32.18
65534;BME280;53640;55.838;37.184;2023-05-16T00:53:12;99778.84;;;12.99;32.09
65534;BME280;53640;55.838;37.184;2023-05-16T00:55:39;99759.53;;;12.82;32.28
65534;BME280;53640;55.838;37.184;2023-05-16T00:58:08;99780.88;;;12.79;32.27
65534;BME280;53640;55.838;37.184;2023-05-16T01:00:34;99735.38;;;12.49;32.93
65534;BME280;53640;55.838;37.184;2023-05-16T01:03:01;99735.44;;;12.36;35.01
65534;BME280;53640;55.838;37.184;2023-05-16T01:05:31;99773.94;;;12.26;36.30
65534;BME280;53640;55.838;37.184;2023-05-16T01:07:58;99769.13;;;11.96;36.54
65534;BME280;53640;55.838;37.184;2023-05-16T01:10:28;99740.25;;;11.57;37.17
65534;BME280;53640;55.838;37.184;2023-05-16T01:13:14;99736.81;;;11.37;36.42
65534;BME280;53640;55.838;37.184;2023-05-16T01:15:46;99768.47;;;11.43;35.94
65534;BME280;53640;55.838;37.184;2023-05-16T01:18:32;99748.25;;;11.32;35.71
65534;BME280;53640;55.838;37.184;2023-05-16T01:21:11;99731.44;;;11.17;35.66
65534;BME280;53640;55.838;37.184;2023-05-16T01:23:59;99749.31;;;11.31;35.50
65534;BME280;53640;55.838;37.184;2023-05-16T01:26:30;99762.44;;;11.41;35.75
65534;BME280;53640;55.838;37.184;2023-05-16T01:28:57;99757.41;;;11.44;35.73
65534;BME280;53640;55.838;37.184;2023-05-16T01:31:25;99704.78;;;11.14;35.43
65534;BME280;53640;55.838;37.184;2023-05-16T01:33:51;99759.25;;;11.50;35.29
65534;BME280;53640;55.838;37.184;2023-05-16T01:39:28;99735.94;;;11.43;35.58
65534;BME280;53640;55.838;37.184;2023-05-16T01:42:11;99757.97;;;11.60;35.35
65534;BME280;53640;55.838;37.184;2023-05-16T01:47:19;99732.56;;;11.54;35.10
65534;BME280;53640;55.838;37.184;2023-05-16T01:52:56;99742.09;;;11.70;35.40
65534;BME280;53640;55.838;37.184;2023-05-16T01:58:03;99736.22;;;11.73;35.05
65534;BME280;53640;55.838;37.184;2023-05-16T02:00:33;99715.84;;;11.64;35.13
65534;BME280;53640;55.838;37.184;2023-05-16T02:02:59;99748.53;;;11.82;35.23
65534;BME280;53640;55.838;37.184;2023-05-16T02:05:25;99736.00;;;11.81;34.87
65534;BME280;53640;55.838;37.184;2023-05-16T02:07:52;99745.78;;;11.89;34.93
65534;BME280;53640;55.838;37.184;2023-05-16T02:10:19;99755.56;;;11.96;34.74
65534;BME280;53640;55.838;37.184;2023-05-16T02:12:48;99707.44;;;11.72;34.91
65534;BME280;53640;55.838;37.184;2023-05-16T02:15:15;99745.31;;;11.98;34.63
65534;BME280;53640;55.838;37.184;2023-05-16T02:17:42;99736.38;;;11.91;35.11
65534;BME280;53640;55.838;37.184;2023-05-16T02:20:10;99758.25;;;11.96;36.36
65534;BME280;53640;55.838;37.184;2023-05-16T02:22:37;99728.09;;;11.73;35.92
65534;BME280;53640;55.838;37.184;2023-05-16T02:25:08;99756.88;;;11.81;36.24
65534;BME280;53640;55.838;37.184;2023-05-16T02:27:35;99746.72;;;11.63;36.15
65534;BME280;53640;55.838;37.184;2023-05-16T02:30:01;99765.47;;;11.64;36.65
65534;BME280;53640;55.838;37.184;2023-05-16T02:32:31;99728.28;;;11.26;38.04
65534;BME280;53640;55.838;37.184;2023-05-16T02:34:58;99745.78;;;11.24;37.88
65534;BME280;53640;55.838;37.184;2023-05-16T02:37:25;99781.66;;;11.26;38.16
65534;BME280;53640;55.838;37.184;2023-05-16T02:39:51;99754.44;;;10.88;39.15
65534;BME280;53640;55.838;37.184;2023-05-16T02:42:20;99734.44;;;10.69;38.47
65534;BME280;53640;55.838;37.184;2023-05-16T02:44:47;99782.53;;;10.87;38.26
65534;BME280;53640;55.838;37.184;2023-05-16T02:47:13;99777.13;;;10.80;38.26
65534;BME280;53640;55.838;37.184;2023-05-16T02:49:39;99752.53;;;10.62;38.31
65534;BME280;53640;55.838;37.184;2023-05-16T02:52:06;99733.34;;;10.57;38.18
65534;BME280;53640;55.838;37.184;2023-05-16T02:54:32;99762.97;;;10.78;38.43
65534;BME280;53640;55.838;37.184;2023-05-16T02:56:59;99752.56;;;10.68;38.01
65534;BME280;53640;55.838;37.184;2023-05-16T02:59:25;99780.88;;;10.92;38.12
65534;BME280;53640;55.838;37.184;2023-05-16T03:01:52;99782.34;;;10.95;38.25
65534;BME280;53640;55.838;37.184;2023-05-16T03:04:18;99763.97;;;10.90;38.16
65534;BME280;53640;55.838;37.184;2023-05-16T03:06:45;99773.75;;;11.05;38.10
65534;BME280;53640;55.838;37.184;2023-05-16T03:09:11;99729.22;;;10.81;38.21
65534;BME280;53640;55.838;37.184;2023-05-16T03:11:39;99772.94;;;11.11;38.13
65534;BME280;53640;55.838;37.184;2023-05-16T03:14:05;99782.06;;;11.16;38.60
65534;BME280;53640;55.838;37.184;2023-05-16T03:16:32;99754.63;;;10.99;38.64
65534;BME280;53640;55.838;37.184;2023-05-16T03:18:58;99750.25;;;10.98;38.59
65534;BME280;53640;55.838;37.184;2023-05-16T03:21:26;99781.25;;;11.22;38.67
65534;BME280;53640;55.838;37.184;2023-05-16T03:23:52;99722.94;;;10.87;38.86
65534;BME280;53640;55.838;37.184;2023-05-16T03:26:20;99786.63;;;11.36;38.26
65534;BME280;53640;55.838;37.184;2023-05-16T03:28:51;99773.06;;;11.36;38.32
65534;BME280;53640;55.838;37.184;2023-05-16T03:31:18;99757.25;;;11.26;38.35
65534;BME280;53640;55.838;37.184;2023-05-16T03:33:45;99792.41;;;11.52;38.68
65534;BME280;53640;55.838;37.184;2023-05-16T03:36:12;99800.31;;;11.61;38.63
65534;BME280;53640;55.838;37.184;2023-05-16T03:38:40;99752.03;;;11.31;38.92
65534;BME280;53640;55.838;37.184;2023-05-16T03:41:07;99747.25;;;11.33;38.61
65534;BME280;53640;55.838;37.184;2023-05-16T03:43:33;99773.03;;;11.49;38.69
65534;BME280;53640;55.838;37.184;2023-05-16T03:46:02;99746.81;;;11.36;38.55
65534;BME280;53640;55.838;37.184;2023-05-16T03:48:29;99792.59;;;11.64;39.06
65534;BME280;53640;55.838;37.184;2023-05-16T03:50:55;99675.66;;;10.96;38.92
65534;BME280;53640;55.838;37.184;2023-05-16T03:53:23;99720.97;;;11.27;39.17
65534;BME280;53640;55.838;37.184;2023-05-16T03:55:49;99803.84;;;11.74;39.50
65534;BME280;53640;55.838;37.184;2023-05-16T03:58:16;99781.34;;;11.61;39.56
65534;BME280;53640;55.838;37.184;2023-05-16T04:00:43;99755.94;;;11.48;39.51
65534;BME280;53640;55.838;37.184;2023-05-16T04:03:11;99769.88;;;11.59;39.71
65534;BME280;53640;55.838;37.184;2023-05-16T04:05:37;99752.34;;;11.55;39.75
65534;BME280;53640;55.838;37.184;2023-05-16T04:08:04;99787.53;;;11.81;39.78
65534;BME280;53640;55.838;37.184;2023-05-16T04:10:31;99796.69;;;11.93;39.64
65534;BME280;53640;55.838;37.184;2023-05-16T04:12:57;99772.53;;;11.79;39.58
65534;BME280;53640;55.838;37.184;2023-05-16T04:15:24;99721.50;;;11.56;39.58
65534;BME280;53640;55.838;37.184;2023-05-16T04:17:50;99798.88;;;12.10;39.71
65534;BME280;53640;55.838;37.184;2023-05-16T04:20:17;99807.16;;;12.21;39.76
65534;BME280;53640;55.838;37.184;2023-05-16T04:22:43;99804.84;;;12.25;39.25
65534;BME280;53640;55.838;37.184;2023-05-16T04:25:10;99760.06;;;12.09;39.72
65534;BME280;53640;55.838;37.184;2023-05-16T04:27:37;99824.97;;;12.49;39.50
65534;BME280;53640;55.838;37.184;2023-05-16T04:30:04;99818.91;;;12.47;39.39
65534;BME280;53640;55.838;37.184;2023-05-16T04:32:32;99820.09;;;12.58;39.00
65534;BME280;53640;55.838;37.184;2023-05-16T04:35:00;99812.78;;;12.58;38.99
65534;BME280;53640;55.838;37.184;2023-05-16T04:37:26;99784.44;;;12.47;38.65
65534;BME280;53640;55.838;37.184;2023-05-16T04:39:53;99787.13;;;12.54;38.86
65534;BME280;53640;55.838;37.184;2023-05-16T04:42:19;99812.59;;;12.85;38.62
65534;BME280;53640;55.838;37.184;2023-05-16T04:44:46;99813.16;;;12.93;38.78
65534;BME280;53640;55.838;37.184;2023-05-16T04:47:13;99793.16;;;12.88;38.74
65534;BME280;53640;55.838;37.184;2023-05-16T04:49:39;99805.94;;;13.06;38.65
65534;BME280;53640;55.838;37.184;2023-05-16T04:52:06;99814.25;;;13.11;38.45
65534;BME280;53640;55.838;37.184;2023-05-16T04:54:33;99797.31;;;13.09;37.99
65534;BME280;53640;55.838;37.184;2023-05-16T04:57:00;99756.72;;;12.95;38.22
65534;BME280;53640;55.838;37.184;2023-05-16T04:59:26;99786.56;;;13.20;37.96
65534;BME280;53640;55.838;37.184;2023-05-16T05:01:53;99816.47;;;13.39;37.90
65534;BME280;53640;55.838;37.184;2023-05-16T05:04:20;99825.97;;;13.55;37.55
65534;BME280;53640;55.838;37.184;2023-05-16T05:06:47;99836.53;;;13.63;37.58
65534;BME280;53640;55.838;37.184;2023-05-16T05:09:14;99823.63;;;13.58;37.39
65534;BME280;53640;55.838;37.184;2023-05-16T05:11:40;99775.78;;;13.32;37.14
65534;BME280;53640;55.838;37.184;2023-05-16T05:14:06;99827.66;;;13.74;36.90
65534;BME280;53640;55.838;37.184;2023-05-16T05:16:33;99831.13;;;13.81;36.70
65534;BME280;53640;55.838;37.184;2023-05-16T05:18:59;99834.59;;;13.88;36.03
65534;BME280;53640;55.838;37.184;2023-05-16T05:21:27;99835.06;;;13.85;35.65
65534;BME280;53640;55.838;37.184;2023-05-16T05:23:53;99774.28;;;13.55;35.80
65534;BME280;53640;55.838;37.184;2023-05-16T05:26:19;99797.94;;;13.73;35.66
65534;BME280;53640;55.838;37.184;2023-05-16T05:28:48;99824.09;;;13.92;35.84
65534;BME280;53640;55.838;37.184;2023-05-16T05:31:14;99748.59;;;13.51;35.49
65534;BME280;53640;55.838;37.184;2023-05-16T05:33:41;99775.94;;;13.74;35.21
65534;BME280;53640;55.838;37.184;2023-05-16T05:36:08;99827.06;;;14.21;34.99
65534;BME280;53640;55.838;37.184;2023-05-16T05:38:34;99782.78;;;13.95;35.02
65534;BME280;53640;55.838;37.184;2023-05-16T05:41:01;99814.38;;;14.14;34.70
65534;BME280;53640;55.838;37.184;2023-05-16T05:43:27;99718.19;;;13.72;34.63
65534;BME280;53640;55.838;37.184;2023-05-16T05:45:54;99734.13;;;13.87;34.38
65534;BME280;53640;55.838;37.184;2023-05-16T05:48:21;99841.56;;;14.63;34.10
65534;BME280;53640;55.838;37.184;2023-05-16T05:50:49;99804.50;;;14.44;33.39
65534;BME280;53640;55.838;37.184;2023-05-16T05:53:15;99838.66;;;14.58;33.08
65534;BME280;53640;55.838;37.184;2023-05-16T05:55:42;99859.63;;;14.87;32.72
65534;BME280;53640;55.838;37.184;2023-05-16T05:58:08;99865.00;;;14.94;31.87
65534;BME280;53640;55.838;37.184;2023-05-16T06:00:35;99742.31;;;14.29;31.63
65534;BME280;53640;55.838;37.184;2023-05-16T06:03:02;99814.22;;;14.81;31.31
65534;BME280;53640;55.838;37.184;2023-05-16T06:05:28;99830.03;;;15.03;31.48
65534;BME280;53640;55.838;37.184;2023-05-16T06:07:55;99828.00;;;15.10;31.47
65534;BME280;53640;55.838;37.184;2023-05-16T06:10:21;99840.22;;;15.31;30.56
65534;BME280;53640;55.838;37.184;2023-05-16T06:12:49;99823.75;;;15.37;30.91
65534;BME280;53640;55.838;37.184;2023-05-16T06:15:16;99856.47;;;15.61;30.58
65534;BME280;53640;55.838;37.184;2023-05-16T06:17:42;99856.16;;;15.69;30.04
65534;BME280;53640;55.838;37.184;2023-05-16T06:20:09;99857.28;;;15.85;29.77
65534;BME280;53640;55.838;37.184;2023-05-16T06:22:37;99839.28;;;15.84;28.81
65534;BME280;53640;55.838;37.184;2023-05-16T06:25:03;99804.72;;;15.78;28.27
65534;BME280;53640;55.838;37.184;2023-05-16T06:27:33;99836.25;;;15.97;28.65
65534;BME280;53640;55.838;37.184;2023-05-16T06:30:01;99831.69;;;16.15;28.35
65534;BME280;53640;55.838;37.184;2023-05-16T06:32:32;99849.19;;;16.30;28.21
65534;BME280;53640;55.838;37.184;2023-05-16T06:34:59;99841.25;;;16.29;26.77
65534;BME280;53640;55.838;37.184;2023-05-16T06:37:25;99824.16;;;16.33;27.17
65534;BME280;53640;55.838;37.184;2023-05-16T06:39:53;99848.38;;;16.58;26.82
65534;BME280;53640;55.838;37.184;2023-05-16T06:42:24;99870.22;;;16.70;27.15
65534;BME280;53640;55.838;37.184;2023-05-16T06:44:50;99813.25;;;16.50;26.35
65534;BME280;53640;55.838;37.184;2023-05-16T06:47:17;99761.88;;;16.36;26.94
65534;BME280;53640;55.838;37.184;2023-05-16T06:49:43;99800.75;;;16.54;26.71
65534;BME280;53640;55.838;37.184;2023-05-16T06:52:10;99778.00;;;16.49;26.02
65534;BME280;53640;55.838;37.184;2023-05-16T06:54:36;99838.81;;;16.90;25.98
65534;BME280;53640;55.838;37.184;2023-05-16T06:57:03;99850.50;;;17.02;25.56
65534;BME280;53640;55.838;37.184;2023-05-16T06:59:31;99819.34;;;16.86;25.86
65534;BME280;53640;55.838;37.184;2023-05-16T07:02:01;99802.50;;;16.77;25.17
65534;BME280;53640;55.838;37.184;2023-05-16T07:04:27;99783.03;;;16.74;25.70
65534;BME280;53640;55.838;37.184;2023-05-16T07:06:54;99834.16;;;17.07;26.29
65534;BME280;53640;55.838;37.184;2023-05-16T07:09:20;99839.91;;;17.22;25.69
65534;BME280;53640;55.838;37.184;2023-05-16T07:11:46;99834.94;;;17.36;25.42
65534;BME280;53640;55.838;37.184;2023-05-16T07:14:13;99863.63;;;17.50;25.50
65534;BME280;53640;55.838;37.184;2023-05-16T07:16:39;99837.56;;;17.48;25.89
65534;BME280;53640;55.838;37.184;2023-05-16T07:19:06;99825.28;;;17.50;25.63
65534;BME280;53640;55.838;37.184;2023-05-16T07:21:33;99848.16;;;17.61;25.18
65534;BME280;53640;55.838;37.184;2023-05-16T07:23:59;99797.66;;;17.52;25.33
65534;BME280;53640;55.838;37.184;2023-05-16T07:26:26;99833.56;;;17.94;25.67
65534;BME280;53640;55.838;37.184;2023-05-16T07:28:52;99844.53;;;17.94;24.76
65534;BME280;53640;55.838;37.184;2023-05-16T07:31:19;99771.81;;;17.43;24.39
65534;BME280;53640;55.838;37.184;2023-05-16T07:33:45;99756.09;;;17.55;23.94
65534;BME280;53640;55.838;37.184;2023-05-16T07:36:12;99801.53;;;17.95;23.77
65534;BME280;53640;55.838;37.184;2023-05-16T07:38:38;99842.38;;;18.23;24.09
65534;BME280;53640;55.838;37.184;2023-05-16T07:41:05;99815.91;;;18.07;22.61
65534;BME280;53640;55.838;37.184;2023-05-16T07:43:31;99751.13;;;17.74;23.79
65534;BME280;53640;55.838;37.184;2023-05-16T07:46:01;99779.84;;;17.93;23.52
65534;BME280;53640;55.838;37.184;2023-05-16T07:48:27;99846.22;;;18.49;23.66
65534;BME280;53640;55.838;37.184;2023-05-16T07:50:54;99827.41;;;18.58;22.70
65534;BME280;53640;55.838;37.184;2023-05-16T07:53:21;99821.16;;;18.63;23.29
65534;BME280;53640;55.838;37.184;2023-05-16T07:55:48;99832.63;;;18.87;23.33
65534;BME280;53640;55.838;37.184;2023-05-16T07:58:15;99828.44;;;18.79;22.50
65534;BME280;53640;55.838;37.184;2023-05-16T08:00:42;99836.84;;;18.99;22.46
65534;BME280;53640;55.838;37.184;2023-05-16T08:03:09;99838.63;;;19.16;22.12
65534;BME280;53640;55.838;37.184;2023-05-16T08:05:35;99826.41;;;19.34;22.19
65534;BME280;53640;55.838;37.184;2023-05-16T08:08:03;99849.88;;;19.52;21.38
65534;BME280;53640;55.838;37.184;2023-05-16T08:10:31;99835.03;;;19.47;21.63
65534;BME280;53640;55.838;37.184;2023-05-16T08:12:57;99825.44;;;19.50;21.51
65534;BME280;53640;55.838;37.184;2023-05-16T08:15:29;99824.94;;;19.58;21.61
65534;BME280;53640;55.838;37.184;2023-05-16T08:17:58;99806.81;;;19.62;21.78
65534;BME280;53640;55.838;37.184;2023-05-16T08:20:26;99805.81;;;19.79;21.41
65534;BME280;53640;55.838;37.184;2023-05-16T08:22:53;99823.19;;;20.00;21.24
65534;BME280;53640;55.838;37.184;2023-05-16T08:25:20;99829.59;;;20.10;20.79
65534;BME280;53640;55.838;37.184;2023-05-16T08:27:48;99842.84;;;20.29;20.42
65534;BME280;53640;55.838;37.184;2023-05-16T08:30:15;99823.91;;;20.37;19.87
65534;BME280;53640;55.838;37.184;2023-05-16T08:32:42;99819.81;;;20.50;20.38
65534;BME280;53640;55.838;37.184;2023-05-16T08:35:10;99792.28;;;20.60;19.96
65534;BME280;53640;55.838;37.184;2023-05-16T08:37:38;99826.19;;;21.02;19.72
65534;BME280;53640;55.838;37.184;2023-05-16T08:40:09;99793.44;;;21.00;19.42
65534;BME280;53640;55.838;37.184;2023-05-16T08:42:36;99798.91;;;21.21;19.53
65534;BME280;53640;55.838;37.184;2023-05-16T08:45:04;99823.13;;;21.49;19.27
65534;BME280;53640;55.838;37.184;2023-05-16T08:47:32;99783.16;;;21.36;19.18
65534;BME280;53640;55.838;37.184;2023-05-16T08:50:01;99798.56;;;21.58;19.04
65534;BME280;53640;55.838;37.184;2023-05-16T08:52:32;99781.47;;;21.61;18.58
65534;BME280;53640;55.838;37.184;2023-05-16T08:55:02;99778.97;;;21.75;18.48
65534;BME280;53640;55.838;37.184;2023-05-16T08:57:33;99778.78;;;22.16;18.65
65534;BME280;53640;55.838;37.184;2023-05-16T09:00:01;99790.25;;;22.33;18.25
65534;BME280;53640;55.838;37.184;2023-05-16T09:02:38;99802.38;;;22.71;17.70
65534;BME280;53640;55.838;37.184;2023-05-16T09:05:07;99803.66;;;22.89;17.88
65534;BME280;53640;55.838;37.184;2023-05-16T09:07:34;99717.22;;;22.59;17.76
65534;BME280;53640;55.838;37.184;2023-05-16T09:10:01;99793.34;;;23.29;16.57
65534;BME280;53640;55.838;37.184;2023-05-16T09:12:30;99795.97;;;23.44;16.47
65534;BME280;53640;55.838;37.184;2023-05-16T09:14:57;99799.16;;;23.56;16.13
65534;BME280;53640;55.838;37.184;2023-05-16T09:17:23;99810.97;;;23.86;16.18
65534;BME280;53640;55.838;37.184;2023-05-16T09:19:49;99798.91;;;24.01;16.16
65534;BME280;53640;55.838;37.184;2023-05-16T09:22:18;99807.38;;;24.28;15.92
65534;BME280;53640;55.838;37.184;2023-05-16T09:24:45;99789.72;;;24.43;15.49
65534;BME280;53640;55.838;37.184;2023-05-16T09:27:13;99773.66;;;24.45;15.68
65534;BME280;53640;55.838;37.184;2023-05-16T09:29:44;99750.16;;;24.62;15.34
65534;BME280;53640;55.838;37.184;2023-05-16T09:32:15;99791.72;;;24.94;15.31
65534;BME280;53640;55.838;37.184;2023-05-16T09:34:43;99803.59;;;25.28;14.59
65534;BME280;53640;55.838;37.184;2023-05-16T09:37:18;99768.25;;;25.06;14.94
65534;BME280;53640;55.838;37.184;2023-05-16T09:39:53;99784.09;;;25.19;14.60
65534;BME280;53640;55.838;37.184;2023-05-16T09:42:20;99796.53;;;25.21;14.60
65534;BME280;53640;55.838;37.184;2023-05-16T09:44:49;99740.06;;;25.31;14.68
65534;BME280;53640;55.838;37.184;2023-05-16T09:47:17;99757.31;;;25.97;13.20
65534;BME280;53640;55.838;37.184;2023-05-16T09:49:45;99792.44;;;25.88;13.65
65534;BME280;53640;55.838;37.184;2023-05-16T09:52:13;99693.38;;;25.38;14.06
65534;BME280;53640;55.838;37.184;2023-05-16T09:54:39;99753.81;;;25.91;13.64
65534;BME280;53640;55.838;37.184;2023-05-16T09:57:06;99749.66;;;26.16;13.58
65534;BME280;53640;55.838;37.184;2023-05-16T09:59:38;99739.13;;;26.27;13.70
65534;BME280;53640;55.838;37.184;2023-05-16T10:02:15;99680.47;;;26.20;13.81
65534;BME280;53640;55.838;37.184;2023-05-16T10:04:42;99770.84;;;27.16;12.85
65534;BME280;53640;55.838;37.184;2023-05-16T10:07:10;99730.84;;;26.95;13.14
65534;BME280;53640;55.838;37.184;2023-05-16T10:09:38;99741.34;;;27.06;12.93
65534;BME280;53640;55.838;37.184;2023-05-16T10:12:07;99741.91;;;27.17;13.36
65534;BME280;53640;55.838;37.184;2023-05-16T10:14:37;99766.16;;;27.34;13.36
65534;BME280;53640;55.838;37.184;2023-05-16T10:17:06;99761.94;;;27.36;13.65
65534;BME280;53640;55.838;37.184;2023-05-16T10:19:36;99767.78;;;27.26;13.41
65534;BME280;53640;55.838;37.184;2023-05-16T10:22:06;99727.19;;;27.16;13.10
65534;BME280;53640;55.838;37.184;2023-05-16T10:25:01;99741.72;;;27.53;13.55
65534;BME280;53640;55.838;37.184;2023-05-16T10:27:32;99711.19;;;27.62;13.37
65534;BME280;53640;55.838;37.184;2023-05-16T10:29:58;99735.13;;;27.89;13.62
65534;BME280;53640;55.838;37.184;2023-05-16T10:32:28;99715.03;;;28.01;13.39
65534;BME280;53640;55.838;37.184;2023-05-16T10:34:55;99747.63;;;28.26;12.89
65534;BME280;53640;55.838;37.184;2023-05-16T10:37:23;99766.13;;;28.31;12.78
65534;BME280;53640;55.838;37.184;2023-05-16T10:39:51;99705.19;;;28.12;12.65
65534;BME280;53640;55.838;37.184;2023-05-16T10:42:17;99711.59;;;28.21;12.88
65534;BME280;53640;55.838;37.184;2023-05-16T10:44:45;99734.34;;;28.41;12.78
65534;BME280;53640;55.838;37.184;2023-05-16T10:47:18;99684.56;;;28.13;12.18
65534;BME280;53640;55.838;37.184;2023-05-16T10:49:45;99654.47;;;28.06;12.67
65534;BME280;53640;55.838;37.184;2023-05-16T10:52:12;99722.53;;;28.70;12.35
65534;BME280;53640;55.838;37.184;2023-05-16T10:54:49;99697.97;;;28.72;12.48
65534;BME280;53640;55.838;37.184;2023-05-16T10:57:22;99720.28;;;29.19;12.25
65534;BME280;53640;55.838;37.184;2023-05-16T10:59:50;99726.72;;;29.11;12.30
65534;BME280;53640;55.838;37.184;2023-05-16T11:02:40;99722.09;;;29.23;11.97
65534;BME280;53640;55.838;37.184;2023-05-16T11:05:12;99680.31;;;29.06;12.24
65534;BME280;53640;55.838;37.184;2023-05-16T11:07:42;99723.63;;;29.42;11.65
65534;BME280;53640;55.838;37.184;2023-05-16T11:10:10;99752.31;;;29.51;12.17
65534;BME280;53640;55.838;37.184;2023-05-16T11:12:44;99696.84;;;29.20;12.55
65534;BME280;53640;55.838;37.184;2023-05-16T11:15:30;99689.00;;;29.13;11.48
65534;BME280;53640;55.838;37.184;2023-05-16T11:18:07;99695.53;;;29.17;12.29
65534;BME280;53640;55.838;37.184;2023-05-16T11:20:38;99709.31;;;29.52;12.09
65534;BME280;53640;55.838;37.184;2023-05-16T11:25:45;99731.00;;;29.38;12.52
65534;BME280;53640;55.838;37.184;2023-05-16T11:28:13;99683.06;;;29.15;12.53
65534;BME280;53640;55.838;37.184;2023-05-16T11:30:42;99725.75;;;29.53;12.33
65534;BME280;53640;55.838;37.184;2023-05-16T11:33:10;99716.13;;;29.72;12.56
65534;BME280;53640;55.838;37.184;2023-05-16T11:35:37;99694.94;;;29.92;12.65
65534;BME280;53640;55.838;37.184;2023-05-16T11:38:04;99670.22;;;30.23;12.19
65534;BME280;53640;55.838;37.184;2023-05-16T11:40:31;99697.25;;;30.98;12.10
65534;BME280;53640;55.838;37.184;2023-05-16T11:42:59;99703.84;;;31.27;11.24
65534;BME280;53640;55.838;37.184;2023-05-16T11:45:28;99681.44;;;31.02;11.08
65534;BME280;53640;55.838;37.184;2023-05-16T11:48:01;99702.41;;;31.08;11.25
65534;BME280;53640;55.838;37.184;2023-05-16T11:50:29;99691.13;;;31.05;11.11
65534;BME280;53640;55.838;37.184;2023-05-16T11:52:56;99680.78;;;30.84;10.83
65534;BME280;53640;55.838;37.184;2023-05-16T11:55:25;99705.59;;;30.73;11.10
65534;BME280;53640;55.838;37.184;2023-05-16T11:57:53;99679.53;;;30.82;11.09
65534;BME280;53640;55.838;37.184;2023-05-16T12:00:22;99706.16;;;31.24;10.85
65534;BME280;53640;55.838;37.184;2023-05-16T12:02:57;99699.38;;;31.26;10.51
65534;BME280;53640;55.838;37.184;2023-05-16T12:05:26;99721.19;;;31.20;10.61
65534;BME280;53640;55.838;37.184;2023-05-16T12:07:53;99701.28;;;30.88;11.03
65534;BME280;53640;55.838;37.184;2023-05-16T12:10:20;99690.66;;;30.69;10.79
65534;BME280;53640;55.838;37.184;2023-05-16T12:12:49;99696.03;;;30.74;10.98
65534;BME280;53640;55.838;37.184;2023-05-16T12:15:19;99706.53;;;30.78;10.97
65534;BME280;53640;55.838;37.184;2023-05-16T12:17:46;99705.81;;;30.68;10.76
65534;BME280;53640;55.838;37.184;2023-05-16T12:20:14;99700.13;;;30.44;11.06
65534;BME280;53640;55.838;37.184;2023-05-16T12:22:45;99683.06;;;30.24;11.39
65534;BME280;53640;55.838;37.184;2023-05-16T12:28:00;99699.16;;;30.40;11.11
65534;BME280;53640;55.838;37.184;2023-05-16T12:30:31;99684.28;;;30.48;10.98
65534;BME280;53640;55.838;37.184;2023-05-16T12:32:59;99667.66;;;30.18;11.35
65534;BME280;53640;55.838;37.184;2023-05-16T12:35:31;99692.28;;;30.37;11.47
65534;BME280;53640;55.838;37.184;2023-05-16T12:38:03;99686.47;;;30.63;11.36
65534;BME280;53640;55.838;37.184;2023-05-16T12:40:31;99674.09;;;30.52;11.59
65534;BME280;53640;55.838;37.184;2023-05-16T12:42:57;99697.66;;;30.42;11.52
65534;BME280;53640;55.838;37.184;2023-05-16T12:45:26;99653.66;;;30.06;11.54
65534;BME280;53640;55.838;37.184;2023-05-16T12:47:53;99683.41;;;30.02;12.18
65534;BME280;53640;55.838;37.184;2023-05-16T12:50:19;99675.88;;;29.94;12.27
65534;BME280;53640;55.838;37.184;2023-05-16T12:52:53;99675.88;;;29.94;12.04
65534;BME280;53640;55.838;37.184;2023-05-16T12:55:23;99668.88;;;30.30;12.01
65534;BME280;53640;55.838;37.184;2023-05-16T12:57:50;99670.13;;;30.53;12.26
65534;BME280;53640;55.838;37.184;2023-05-16T13:00:18;99662.25;;;30.67;11.92
65534;BME280;53640;55.838;37.184;2023-05-16T13:02:48;99689.72;;;30.65;12.07
65534;BME280;53640;55.838;37.184;2023-05-16T13:05:19;99655.84;;;30.34;11.76
65534;BME280;53640;55.838;37.184;2023-05-16T13:07:49;99637.47;;;29.70;11.85
65534;BME280;53640;55.838;37.184;2023-05-16T13:10:34;99654.28;;;28.93;12.52
65534;BME280;53640;55.838;37.184;2023-05-16T13:13:21;99647.25;;;28.14;13.34